sensor_id;sensor_type;location;lat;lon;timestamp;P1;durP1;ratioP1;P2;durP2;ratioP2
45940;SDS011;31858;46.008;8.978;2023-05-07T00:05:59;4.75;;;3.30;;
45940;SDS011;31858;46.008;8.978;2023-05-07T00:16:03;2.90;;;2.47;;
45940;SDS011;31858;46.008;8.978;2023-05-07T00:26:05;4.00;;;2.30;;
45940;SDS011;31858;46.008;8.978;2023-05-07T00:36:08;2.80;;;2.40;;
45940;SDS011;31858;46.008;8.978;2023-05-07T00:46:09;7.60;;;2.60;;
45940;SDS011;31858;46.008;8.978;2023-05-07T00:56:13;6.82;;;3.28;;
45940;SDS011;31858;46.008;8.978;2023-05-07T01:06:15;2.28;;;1.90;;
45940;SDS011;31858;46.008;8.978;2023-05-07T01:16:19;3.35;;;3.05;;
45940;SDS011;31858;46.008;8.978;2023-05-07T01:26:22;4.60;;;3.60;;
45940;SDS011;31858;46.008;8.978;2023-05-07T01:36:24;3.38;;;2.80;;
45940;SDS011;31858;46.008;8.978;2023-05-07T01:46:28;3.95;;;1.83;;
45940;SDS011;31858;46.008;8.978;2023-05-07T01:56:32;2.83;;;2.53;;
45940;SDS011;31858;46.008;8.978;2023-05-07T02:06:35;4.32;;;2.58;;
45940;SDS011;31858;46.008;8.978;2023-05-07T02:16:36;3.33;;;2.63;;
45940;SDS011;31858;46.008;8.978;2023-05-07T02:26:39;3.28;;;2.60;;
45940;SDS011;31858;46.008;8.978;2023-05-07T02:36:41;3.75;;;2.45;;
45940;SDS011;31858;46.008;8.978;2023-05-07T02:46:44;4.13;;;2.10;;
45940;SDS011;31858;46.008;8.978;2023-05-07T02:56:45;3.25;;;2.42;;
45940;SDS011;31858;46.008;8.978;2023-05-07T03:06:48;2.42;;;2.22;;
45940;SDS011;31858;46.008;8.978;2023-05-07T03:16:50;2.85;;;2.40;;
45940;SDS011;31858;46.008;8.978;2023-05-07T03:26:53;5.05;;;3.05;;
45940;SDS011;31858;46.008;8.978;2023-05-07T03:36:54;1.88;;;1.55;;
45940;SDS011;31858;46.008;8.978;2023-05-07T03:46:57;5.70;;;2.70;;
45940;SDS011;31858;46.008;8.978;2023-05-07T03:56:59;3.40;;;2.50;;
45940;SDS011;31858;46.008;8.978;2023-05-07T04:07:03;3.60;;;2.15;;
45940;SDS011;31858;46.008;8.978;2023-05-07T04:17:04;3.47;;;1.90;;
45940;SDS011;31858;46.008;8.978;2023-05-07T04:27:08;3.65;;;2.03;;
45940;SDS011;31858;46.008;8.978;2023-05-07T04:37:10;2.30;;;2.10;;
45940;SDS011;31858;46.008;8.978;2023-05-07T04:47:12;3.78;;;2.35;;
45940;SDS011;31858;46.008;8.978;2023-05-07T04:57:14;2.45;;;2.17;;
45940;SDS011;31858;46.008;8.978;2023-05-07T05:07:18;2.30;;;2.20;;
45940;SDS011;31858;46.008;8.978;2023-05-07T05:17:19;1.90;;;1.80;;
45940;SDS011;31858;46.008;8.978;2023-05-07T05:27:22;4.15;;;1.95;;
45940;SDS011;31858;46.008;8.978;2023-05-07T05:37:24;2.10;;;2.00;;
45940;SDS011;31858;46.008;8.978;2023-05-07T05:47:27;2.20;;;2.05;;
45940;SDS011;31858;46.008;8.978;2023-05-07T05:57:29;3.17;;;2.70;;
45940;SDS011;31858;46.008;8.978;2023-05-07T06:07:32;4.05;;;2.55;;
45940;SDS011;31858;46.008;8.978;2023-05-07T06:17:34;2.25;;;2.13;;
45940;SDS011;31858;46.008;8.978;2023-05-07T06:27:37;3.45;;;1.88;;
45940;SDS011;31858;46.008;8.978;2023-05-07T06:37:40;3.50;;;1.80;;
45940;SDS011;31858;46.008;8.978;2023-05-07T06:47:43;3.00;;;2.35;;
45940;SDS011;31858;46.008;8.978;2023-05-07T06:57:45;3.10;;;2.67;;
45940;SDS011;31858;46.008;8.978;2023-05-07T07:07:48;3.85;;;2.58;;
45940;SDS011;31858;46.008;8.978;2023-05-07T07:17:52;3.00;;;2.20;;
45940;SDS011;31858;46.008;8.978;2023-05-07T07:27:55;7.75;;;2.40;;
45940;SDS011;31858;46.008;8.978;2023-05-07T07:37:57;4.95;;;2.22;;
45940;SDS011;31858;46.008;8.978;2023-05-07T07:48:00;3.67;;;2.10;;
45940;SDS011;31858;46.008;8.978;2023-05-07T07:58:01;1.92;;;1.73;;
45940;SDS011;31858;46.008;8.978;2023-05-07T08:08:05;4.55;;;2.80;;
45940;SDS011;31858;46.008;8.978;2023-05-07T08:18:06;3.00;;;2.70;;
45940;SDS011;31858;46.008;8.978;2023-05-07T08:28:09;3.15;;;2.92;;
45940;SDS011;31858;46.008;8.978;2023-05-07T08:38:11;3.13;;;2.88;;
45940;SDS011;31858;46.008;8.978;2023-05-07T08:48:15;2.40;;;2.30;;
45940;SDS011;31858;46.008;8.978;2023-05-07T08:58:17;2.38;;;2.20;;
45940;SDS011;31858;46.008;8.978;2023-05-07T09:08:23;1.92;;;1.73;;
45940;SDS011;31858;46.008;8.978;2023-05-07T09:18:25;2.17;;;1.83;;
45940;SDS011;31858;46.008;8.978;2023-05-07T09:28:28;1.75;;;1.65;;
45940;SDS011;31858;46.008;8.978;2023-05-07T09:38:30;3.33;;;1.55;;
45940;SDS011;31858;46.008;8.978;2023-05-07T09:48:37;2.97;;;1.48;;
45940;SDS011;31858;46.008;8.978;2023-05-07T09:58:40;2.20;;;1.30;;
45940;SDS011;31858;46.008;8.978;2023-05-07T10:08:44;1.55;;;1.40;;
45940;SDS011;31858;46.008;8.978;2023-05-07T10:18:47;1.85;;;1.75;;
45940;SDS011;31858;46.008;8.978;2023-05-07T10:28:51;3.80;;;3.50;;
45940;SDS011;31858;46.008;8.978;2023-05-07T10:38:59;5.38;;;4.40;;
45940;SDS011;31858;46.008;8.978;2023-05-07T10:49:09;4.22;;;3.90;;
45940;SDS011;31858;46.008;8.978;2023-05-07T10:59:31;4.45;;;3.60;;
45940;SDS011;31858;46.008;8.978;2023-05-07T11:19:58;5.13;;;4.22;;
45940;SDS011;31858;46.008;8.978;2023-05-07T11:30:01;4.60;;;3.10;;
45940;SDS011;31858;46.008;8.978;2023-05-07T11:40:03;2.97;;;2.10;;
45940;SDS011;31858;46.008;8.978;2023-05-07T11:50:08;9.52;;;2.88;;
45940;SDS011;31858;46.008;8.978;2023-05-07T12:00:11;4.93;;;3.70;;
45940;SDS011;31858;46.008;8.978;2023-05-07T12:10:18;4.28;;;3.88;;
45940;SDS011;31858;46.008;8.978;2023-05-07T12:20:21;4.22;;;3.83;;
45940;SDS011;31858;46.008;8.978;2023-05-07T12:30:24;4.78;;;3.85;;
45940;SDS011;31858;46.008;8.978;2023-05-07T12:40:34;3.92;;;3.53;;
45940;SDS011;31858;46.008;8.978;2023-05-07T12:50:38;3.92;;;3.53;;
45940;SDS011;31858;46.008;8.978;2023-05-07T13:00:40;4.35;;;3.72;;
45940;SDS011;31858;46.008;8.978;2023-05-07T13:10:44;4.38;;;4.00;;
45940;SDS011;31858;46.008;8.978;2023-05-07T13:20:46;7.75;;;3.92;;
45940;SDS011;31858;46.008;8.978;2023-05-07T13:30:49;3.80;;;3.50;;
45940;SDS011;31858;46.008;8.978;2023-05-07T13:40:51;4.78;;;3.55;;
45940;SDS011;31858;46.008;8.978;2023-05-07T13:50:55;5.18;;;3.90;;
45940;SDS011;31858;46.008;8.978;2023-05-07T14:00:57;3.83;;;2.80;;
45940;SDS011;31858;46.008;8.978;2023-05-07T14:11:00;2.85;;;2.65;;
45940;SDS011;31858;46.008;8.978;2023-05-07T14:21:02;3.78;;;3.15;;
45940;SDS011;31858;46.008;8.978;2023-05-07T14:31:05;4.38;;;2.80;;
45940;SDS011;31858;46.008;8.978;2023-05-07T14:41:07;3.83;;;3.08;;
45940;SDS011;31858;46.008;8.978;2023-05-07T14:51:10;3.75;;;2.55;;
45940;SDS011;31858;46.008;8.978;2023-05-07T15:01:12;2.80;;;2.60;;
45940;SDS011;31858;46.008;8.978;2023-05-07T15:11:15;5.00;;;2.63;;
45940;SDS011;31858;46.008;8.978;2023-05-07T15:21:17;5.50;;;3.10;;
45940;SDS011;31858;46.008;8.978;2023-05-07T15:31:20;4.10;;;3.10;;
45940;SDS011;31858;46.008;8.978;2023-05-07T15:41:22;3.28;;;3.08;;
45940;SDS011;31858;46.008;8.978;2023-05-07T15:51:25;4.35;;;3.40;;
45940;SDS011;31858;46.008;8.978;2023-05-07T16:01:27;3.85;;;3.45;;
45940;SDS011;31858;46.008;8.978;2023-05-07T16:11:30;3.33;;;3.03;;
45940;SDS011;31858;46.008;8.978;2023-05-07T16:21:32;3.50;;;3.20;;
45940;SDS011;31858;46.008;8.978;2023-05-07T16:31:36;2.88;;;2.67;;
45940;SDS011;31858;46.008;8.978;2023-05-07T16:41:38;2.70;;;2.50;;
45940;SDS011;31858;46.008;8.978;2023-05-07T16:51:41;4.68;;;2.70;;
45940;SDS011;31858;46.008;8.978;2023-05-07T17:01:43;3.00;;;2.80;;
45940;SDS011;31858;46.008;8.978;2023-05-07T17:11:46;2.92;;;2.72;;
45940;SDS011;31858;46.008;8.978;2023-05-07T17:21:48;3.22;;;2.90;;
45940;SDS011;31858;46.008;8.978;2023-05-07T17:31:50;4.50;;;3.30;;
45940;SDS011;31858;46.008;8.978;2023-05-07T17:41:52;4.90;;;3.58;;
45940;SDS011;31858;46.008;8.978;2023-05-07T17:51:55;5.85;;;3.53;;
45940;SDS011;31858;46.008;8.978;2023-05-07T18:01:57;4.57;;;3.53;;
45940;SDS011;31858;46.008;8.978;2023-05-07T18:11:59;9.73;;;3.85;;
45940;SDS011;31858;46.008;8.978;2023-05-07T18:22:01;5.22;;;3.22;;
45940;SDS011;31858;46.008;8.978;2023-05-07T18:32:05;6.90;;;3.08;;
45940;SDS011;31858;46.008;8.978;2023-05-07T18:42:06;2.88;;;2.63;;
45940;SDS011;31858;46.008;8.978;2023-05-07T18:52:09;3.95;;;2.20;;
45940;SDS011;31858;46.008;8.978;2023-05-07T19:02:11;5.68;;;2.90;;
45940;SDS011;31858;46.008;8.978;2023-05-07T19:12:14;5.28;;;2.85;;
45940;SDS011;31858;46.008;8.978;2023-05-07T19:22:16;4.22;;;3.00;;
45940;SDS011;31858;46.008;8.978;2023-05-07T19:32:19;5.00;;;2.95;;
45940;SDS011;31858;46.008;8.978;2023-05-07T19:42:21;3.17;;;2.40;;
45940;SDS011;31858;46.008;8.978;2023-05-07T19:52:24;2.55;;;2.35;;
45940;SDS011;31858;46.008;8.978;2023-05-07T20:02:26;2.63;;;2.40;;
45940;SDS011;31858;46.008;8.978;2023-05-07T20:12:29;3.03;;;2.72;;
45940;SDS011;31858;46.008;8.978;2023-05-07T20:22:31;4.65;;;2.80;;
45940;SDS011;31858;46.008;8.978;2023-05-07T20:32:34;3.05;;;1.98;;
45940;SDS011;31858;46.008;8.978;2023-05-07T20:42:36;5.10;;;3.72;;
45940;SDS011;31858;46.008;8.978;2023-05-07T20:52:39;3.33;;;3.00;;
45940;SDS011;31858;46.008;8.978;2023-05-07T21:02:41;2.80;;;2.20;;
45940;SDS011;31858;46.008;8.978;2023-05-07T21:12:45;2.08;;;1.98;;
45940;SDS011;31858;46.008;8.978;2023-05-07T21:22:47;2.42;;;1.90;;
45940;SDS011;31858;46.008;8.978;2023-05-07T21:32:50;1.58;;;1.48;;
45940;SDS011;31858;46.008;8.978;2023-05-07T21:42:54;1.38;;;1.27;;
45940;SDS011;31858;46.008;8.978;2023-05-07T21:52:57;1.50;;;1.40;;
45940;SDS011;31858;46.008;8.978;2023-05-07T22:02:59;2.88;;;1.50;;
45940;SDS011;31858;46.008;8.978;2023-05-07T22:13:02;2.10;;;1.55;;
45940;SDS011;31858;46.008;8.978;2023-05-07T22:23:04;3.38;;;1.70;;
45940;SDS011;31858;46.008;8.978;2023-05-07T22:33:07;2.13;;;1.95;;
45940;SDS011;31858;46.008;8.978;2023-05-07T22:43:08;2.30;;;2.10;;
45940;SDS011;31858;46.008;8.978;2023-05-07T22:53:11;3.72;;;2.08;;
45940;SDS011;31858;46.008;8.978;2023-05-07T23:03:13;2.67;;;1.92;;
45940;SDS011;31858;46.008;8.978;2023-05-07T23:13:16;3.53;;;2.00;;
45940;SDS011;31858;46.008;8.978;2023-05-07T23:23:17;1.75;;;1.65;;
45940;SDS011;31858;46.008;8.978;2023-05-07T23:33:20;2.90;;;1.85;;
45940;SDS011;31858;46.008;8.978;2023-05-07T23:43:22;4.22;;;2.00;;
45940;SDS011;31858;46.008;8.978;2023-05-07T23:53:25;2.20;;;1.63;;
